Time;durP1;ratioP1;P1;durP2;ratioP2;P2;SDS_P1;SDS_P2;PMS_P1;PMS_P2;Temp;Humidity;BMP_temperature;BMP_pressure;BME280_temperature;BME280_humidity;BME280_pressure;Samples;Min_cycle;Max_cycle;Signal;HPM_P1;HPM_P2
2022/10/27 00:00:07;;;;;;;20.17;3.40;;;11.90;99.90;;;;;;5046051;28;20028;-58
2022/10/27 00:02:32;;;;;;;20.75;3.35;;;11.90;99.90;;;;;;5033976;28;20079;-59
2022/10/27 00:04:58;;;;;;;28.02;3.47;;;11.90;99.90;;;;;;5047463;28;20025;-58
2022/10/27 00:07:23;;;;;;;25.08;3.35;;;12.00;99.90;;;;;;5045150;28;20110;-60
2022/10/27 00:09:49;;;;;;;15.73;2.72;;;12.00;99.90;;;;;;5042591;28;20025;-60
2022/10/27 00:12:15;;;;;;;21.48;3.45;;;12.00;99.90;;;;;;5038291;28;20119;-60
2022/10/27 00:14:40;;;;;;;6.40;2.75;;;12.00;99.90;;;;;;5043886;28;20033;-60
2022/10/27 00:17:06;;;;;;;18.95;4.35;;;11.90;99.90;;;;;;5038615;28;20055;-60
2022/10/27 00:19:32;;;;;;;13.50;3.00;;;11.90;99.90;;;;;;5043378;28;20098;-60
2022/10/27 00:21:57;;;;;;;11.85;3.15;;;11.80;99.90;;;;;;5039909;28;20513;-60
2022/10/27 00:24:23;;;;;;;13.98;3.70;;;11.70;99.90;;;;;;5042269;28;20507;-57
2022/10/27 00:26:48;;;;;;;7.93;2.90;;;11.70;99.90;;;;;;5039760;28;20134;-58
2022/10/27 00:29:14;;;;;;;13.13;3.08;;;11.60;99.90;;;;;;5046014;28;20025;-59
2022/10/27 00:31:39;;;;;;;15.82;2.95;;;11.60;99.90;;;;;;5033691;28;20029;-59
2022/10/27 00:34:05;;;;;;;9.60;3.38;;;11.60;99.90;;;;;;5042479;28;20072;-58
2022/10/27 00:36:31;;;;;;;13.73;3.50;;;11.60;99.90;;;;;;5044032;28;20025;-59
2022/10/27 00:38:58;;;;;;;18.10;5.38;;;11.60;99.90;;;;;;5043543;28;20025;-61
2022/10/27 00:41:29;;;;;;;5.55;3.20;;;11.70;99.90;;;;;;5023347;28;20033;-59
2022/10/27 00:43:55;;;;;;;11.60;3.13;;;11.70;99.90;;;;;;5044830;28;20021;-60
2022/10/27 00:46:38;;;;;;;16.70;3.28;;;11.80;99.90;;;;;;5043757;28;20033;-59
2022/10/27 00:49:09;;;;;;;12.95;2.75;;;11.80;99.90;;;;;;5040895;28;20105;-56
2022/10/27 00:51:51;;;;;;;9.88;2.50;;;11.80;99.90;;;;;;5037075;28;20032;-60
2022/10/27 00:54:18;;;;;;;29.02;3.78;;;11.70;99.90;;;;;;5020850;28;20553;-58
2022/10/27 00:56:46;;;;;;;5.40;3.00;;;11.70;99.90;;;;;;5045630;28;20036;-58
2022/10/27 00:59:12;;;;;;;14.02;3.20;;;11.60;99.90;;;;;;5044538;28;20029;-57
2022/10/27 01:01:39;;;;;;;8.82;3.50;;;11.60;99.90;;;;;;5045523;28;20080;-59
2022/10/27 01:04:05;;;;;;;15.73;3.38;;;11.60;99.90;;;;;;5034968;28;20066;-58
2022/10/27 01:06:32;;;;;;;16.20;3.22;;;11.60;99.90;;;;;;5021219;28;20506;-59
2022/10/27 01:08:59;;;;;;;17.27;3.60;;;11.60;99.90;;;;;;5048848;28;20486;-59
2022/10/27 01:11:24;;;;;;;18.25;3.28;;;11.50;99.90;;;;;;5041011;28;20052;-58
2022/10/27 01:13:50;;;;;;;10.50;3.65;;;11.50;99.90;;;;;;5037098;28;20041;-60
2022/10/27 01:16:29;;;;;;;11.82;3.10;;;11.50;99.90;;;;;;5039896;28;20033;-59
2022/10/27 01:19:03;;;;;;;18.52;4.10;;;11.50;99.90;;;;;;5037603;28;20029;-59
2022/10/27 01:22:01;;;;;;;10.65;3.10;;;11.40;99.90;;;;;;5041531;28;21860;-58
2022/10/27 01:24:39;;;;;;;13.52;3.25;;;11.50;99.90;;;;;;5032433;28;20495;-59
2022/10/27 01:27:28;;;;;;;5.70;2.63;;;11.30;99.90;;;;;;5047061;28;20021;-60
2022/10/27 01:30:15;;;;;;;6.07;3.25;;;11.30;99.90;;;;;;5026097;28;20029;-59
2022/10/27 01:32:51;;;;;;;23.35;4.10;;;11.30;99.90;;;;;;5042553;28;20402;-58
2022/10/27 01:35:38;;;;;;;42.20;5.10;;;11.40;99.90;;;;;;5049443;28;20116;-59
2022/10/27 01:38:15;;;;;;;10.85;3.53;;;11.40;99.90;;;;;;5048151;28;20104;-60
2022/10/27 01:41:01;;;;;;;12.80;3.22;;;11.50;99.90;;;;;;5045183;28;20390;-59
2022/10/27 01:43:29;;;;;;;13.25;2.85;;;11.50;99.90;;;;;;5040418;28;20112;-58
2022/10/27 01:45:55;;;;;;;14.32;3.65;;;11.50;99.90;;;;;;5043669;28;20029;-60
2022/10/27 01:48:21;;;;;;;19.55;3.35;;;11.60;99.90;;;;;;5048033;28;20051;-58
2022/10/27 01:50:47;;;;;;;11.43;2.80;;;11.50;99.90;;;;;;5046344;28;20033;-58
2022/10/27 01:53:13;;;;;;;10.73;2.95;;;11.50;99.90;;;;;;5048508;28;20091;-60
2022/10/27 01:55:55;;;;;;;11.25;3.80;;;11.50;99.90;;;;;;5048813;28;20494;-60
2022/10/27 01:58:34;;;;;;;29.45;3.70;;;11.50;99.90;;;;;;5046680;28;20029;-59
2022/10/27 02:01:38;;;;;;;14.48;3.38;;;11.50;99.90;;;;;;5043182;28;20049;-59
2022/10/27 02:04:19;;;;;;;16.00;3.22;;;11.50;99.90;;;;;;5044599;28;20079;-58
2022/10/27 02:06:52;;;;;;;13.65;3.53;;;11.40;99.90;;;;;;5042898;28;20017;-60
2022/10/27 02:09:26;;;;;;;12.15;3.13;;;11.40;99.90;;;;;;5046199;28;20045;-59
2022/10/27 02:11:54;;;;;;;7.82;2.35;;;11.20;99.90;;;;;;5044909;28;20067;-59
2022/10/27 02:14:20;;;;;;;13.73;3.53;;;11.20;99.90;;;;;;5038691;28;20299;-57
2022/10/27 02:16:50;;;;;;;10.80;2.72;;;11.20;99.90;;;;;;5047475;28;20047;-59
2022/10/27 02:19:25;;;;;;;8.48;2.50;;;11.10;99.90;;;;;;5046508;28;20086;-60
2022/10/27 02:21:53;;;;;;;10.27;2.90;;;11.00;99.90;;;;;;5045624;28;20037;-60
2022/10/27 02:24:19;;;;;;;7.75;2.50;;;11.00;99.90;;;;;;5046433;28;20059;-60
2022/10/27 02:26:49;;;;;;;9.82;3.13;;;11.00;99.90;;;;;;5049031;28;20507;-60
2022/10/27 02:29:40;;;;;;;11.40;3.38;;;11.00;99.90;;;;;;5039992;28;20071;-60
2022/10/27 02:32:10;;;;;;;5.18;2.53;;;11.10;99.90;;;;;;5043307;28;20034;-59
2022/10/27 02:34:37;;;;;;;8.60;3.50;;;11.10;99.90;;;;;;5046183;28;20434;-59
2022/10/27 02:37:04;;;;;;;21.15;3.80;;;11.10;99.90;;;;;;5047043;28;20029;-59
2022/10/27 02:39:30;;;;;;;12.13;4.50;;;11.20;99.90;;;;;;5049054;28;20530;-60
2022/10/27 02:41:55;;;;;;;6.03;3.35;;;11.20;99.90;;;;;;5047926;28;20159;-61
2022/10/27 02:44:21;;;;;;;20.15;3.70;;;11.30;99.90;;;;;;5046086;28;20049;-59
2022/10/27 02:46:46;;;;;;;30.13;5.03;;;11.30;99.90;;;;;;5048550;28;20017;-59
2022/10/27 02:49:12;;;;;;;7.55;2.90;;;11.30;99.90;;;;;;5043915;28;20501;-59
2022/10/27 02:51:37;;;;;;;14.25;3.22;;;11.30;99.90;;;;;;5045483;28;20045;-59
2022/10/27 02:54:03;;;;;;;9.57;2.83;;;11.30;99.90;;;;;;5039509;28;20038;-60
2022/10/27 02:56:28;;;;;;;22.42;3.97;;;11.30;99.90;;;;;;5044192;28;20033;-59
2022/10/27 02:58:54;;;;;;;19.15;4.07;;;11.40;99.90;;;;;;5044242;28;20036;-59
2022/10/27 03:01:19;;;;;;;13.18;3.13;;;11.40;99.90;;;;;;5045546;28;20041;-58
2022/10/27 03:03:45;;;;;;;13.02;2.65;;;11.40;99.90;;;;;;5040694;28;20048;-58
2022/10/27 03:06:10;;;;;;;9.90;2.33;;;11.40;99.90;;;;;;5042306;28;20025;-59
2022/10/27 03:08:36;;;;;;;13.35;2.80;;;11.40;99.90;;;;;;5040204;28;20029;-59
2022/10/27 03:11:01;;;;;;;12.02;3.47;;;11.40;99.90;;;;;;5041745;28;20043;-60
2022/10/27 03:13:27;;;;;;;18.15;3.40;;;11.40;99.90;;;;;;5048362;28;20075;-60
2022/10/27 03:15:52;;;;;;;9.52;2.83;;;11.50;99.90;;;;;;5042984;28;20046;-60
2022/10/27 03:18:18;;;;;;;8.25;2.72;;;11.50;99.90;;;;;;5035891;28;20053;-60
2022/10/27 03:20:46;;;;;;;6.28;2.85;;;11.50;99.90;;;;;;5039581;28;20044;-57
2022/10/27 03:23:12;;;;;;;9.98;2.97;;;11.50;99.90;;;;;;5041521;28;20029;-57
2022/10/27 03:25:42;;;;;;;8.27;3.17;;;11.50;99.90;;;;;;5046309;28;20438;-58
2022/10/27 03:28:10;;;;;;;10.82;3.05;;;11.50;99.90;;;;;;5044357;28;20020;-59
2022/10/27 03:30:36;;;;;;;10.35;2.63;;;11.50;99.90;;;;;;5042316;28;20090;-57
2022/10/27 03:33:02;;;;;;;9.07;2.90;;;11.60;99.90;;;;;;5041997;28;20028;-57
2022/10/27 03:35:27;;;;;;;10.43;2.90;;;11.60;99.90;;;;;;5041978;28;20021;-56
2022/10/27 03:38:00;;;;;;;6.03;2.67;;;11.60;99.90;;;;;;5040965;28;20166;-58
2022/10/27 03:40:27;;;;;;;13.93;2.97;;;11.60;99.90;;;;;;5043369;28;20044;-59
2022/10/27 03:42:59;;;;;;;17.02;3.03;;;11.60;99.90;;;;;;5045713;28;20057;-60
2022/10/27 03:45:25;;;;;;;7.25;2.90;;;11.60;99.90;;;;;;5041597;28;20052;-59
2022/10/27 03:48:11;;;;;;;10.38;3.72;;;11.60;99.90;;;;;;5046336;28;20029;-56
2022/10/27 03:50:37;;;;;;;30.83;4.95;;;11.70;99.90;;;;;;5041266;28;20032;-59
2022/10/27 03:53:04;;;;;;;13.15;3.35;;;11.70;99.90;;;;;;5038686;28;20049;-57
2022/10/27 03:55:31;;;;;;;19.05;5.13;;;11.70;99.90;;;;;;5041170;28;20037;-60
2022/10/27 03:57:56;;;;;;;16.40;3.33;;;11.70;99.90;;;;;;5042422;28;20604;-58
2022/10/27 04:00:22;;;;;;;12.35;3.50;;;11.80;99.90;;;;;;5043283;28;20119;-59
2022/10/27 04:02:51;;;;;;;11.98;2.85;;;11.80;99.90;;;;;;5045707;28;20024;-57
2022/10/27 04:05:17;;;;;;;18.98;3.63;;;11.80;99.90;;;;;;5045616;28;20515;-60
2022/10/27 04:07:42;;;;;;;13.80;3.83;;;11.80;99.90;;;;;;5050038;28;20087;-59
2022/10/27 04:10:08;;;;;;;17.05;3.03;;;11.80;99.90;;;;;;5039244;28;20022;-58
2022/10/27 04:12:33;;;;;;;10.85;3.00;;;11.80;99.90;;;;;;5041716;28;20021;-59
2022/10/27 04:14:59;;;;;;;28.05;4.90;;;11.80;99.90;;;;;;5036641;28;20071;-59
2022/10/27 04:17:24;;;;;;;18.95;3.92;;;11.80;99.90;;;;;;5040767;28;20025;-57
2022/10/27 04:19:50;;;;;;;14.48;3.63;;;11.80;99.90;;;;;;5038657;28;20390;-59
2022/10/27 04:22:15;;;;;;;11.43;3.15;;;11.80;99.90;;;;;;5043202;28;20036;-59
2022/10/27 04:24:41;;;;;;;9.18;3.00;;;11.70;99.90;;;;;;5049195;28;20037;-56
2022/10/27 04:27:07;;;;;;;15.27;3.38;;;11.70;99.90;;;;;;5040994;28;20167;-58
2022/10/27 04:29:32;;;;;;;6.82;3.15;;;11.70;99.90;;;;;;5034475;28;20036;-59
2022/10/27 04:31:58;;;;;;;9.80;4.18;;;11.70;99.90;;;;;;5042129;28;20033;-60
2022/10/27 04:34:24;;;;;;;11.40;3.42;;;11.70;99.90;;;;;;5044756;28;20126;-61
2022/10/27 04:36:50;;;;;;;10.98;3.45;;;11.60;99.90;;;;;;5040538;28;20079;-60
2022/10/27 04:39:15;;;;;;;11.90;2.95;;;11.60;99.90;;;;;;5039495;28;20026;-60
2022/10/27 04:41:41;;;;;;;10.75;3.05;;;11.60;99.90;;;;;;5046290;28;20025;-59
2022/10/27 04:44:07;;;;;;;12.75;3.78;;;11.60;99.90;;;;;;5033127;28;20101;-58
2022/10/27 04:46:32;;;;;;;8.73;2.47;;;11.60;99.90;;;;;;5045467;28;20020;-60
2022/10/27 04:48:58;;;;;;;8.45;3.30;;;11.70;99.90;;;;;;5044861;28;20017;-60
2022/10/27 04:51:24;;;;;;;14.77;3.72;;;11.60;99.90;;;;;;5042998;28;20045;-59
2022/10/27 04:53:49;;;;;;;11.02;2.92;;;11.70;99.90;;;;;;5047129;28;20025;-60
2022/10/27 04:56:15;;;;;;;13.43;3.28;;;11.70;99.90;;;;;;5040642;28;20120;-59
2022/10/27 04:58:40;;;;;;;17.52;3.67;;;11.70;99.90;;;;;;5039690;28;20100;-60
2022/10/27 05:01:07;;;;;;;5.65;2.67;;;11.80;99.90;;;;;;5037662;28;20029;-55
2022/10/27 05:03:33;;;;;;;9.20;3.50;;;11.80;99.90;;;;;;5045094;28;20025;-59
2022/10/27 05:05:59;;;;;;;13.13;3.25;;;11.80;99.90;;;;;;5051911;28;20028;-59
2022/10/27 05:08:24;;;;;;;25.50;4.15;;;11.90;99.90;;;;;;5043098;28;20029;-60
2022/10/27 05:10:50;;;;;;;10.10;3.13;;;11.90;99.90;;;;;;5047161;28;20029;-59
2022/10/27 05:13:15;;;;;;;18.42;3.85;;;11.90;99.90;;;;;;5047759;28;20507;-62
2022/10/27 05:15:41;;;;;;;11.55;3.17;;;11.90;99.90;;;;;;5044261;28;20041;-60
2022/10/27 05:18:06;;;;;;;12.38;3.83;;;11.90;99.90;;;;;;5049583;28;20060;-59
2022/10/27 05:20:32;;;;;;;16.25;3.08;;;11.90;99.90;;;;;;5045391;28;20080;-60
2022/10/27 05:22:57;;;;;;;8.45;2.75;;;11.90;99.90;;;;;;5047420;28;20083;-58
2022/10/27 05:25:23;;;;;;;5.10;3.10;;;11.90;99.90;;;;;;5042339;28;20033;-59
2022/10/27 05:27:48;;;;;;;9.65;3.78;;;11.90;99.90;;;;;;5043621;28;20470;-59
2022/10/27 05:30:14;;;;;;;8.43;3.33;;;11.90;99.90;;;;;;5041861;28;20040;-59
2022/10/27 05:32:40;;;;;;;12.82;3.70;;;11.90;99.90;;;;;;5043777;28;20060;-58
2022/10/27 05:35:06;;;;;;;16.85;3.55;;;11.90;99.90;;;;;;5041878;28;20094;-59
2022/10/27 05:37:31;;;;;;;11.05;3.08;;;11.90;99.90;;;;;;5047951;28;20032;-58
2022/10/27 05:39:57;;;;;;;10.88;3.42;;;11.90;99.90;;;;;;5038270;28;20049;-59
2022/10/27 05:42:22;;;;;;;10.57;2.88;;;11.80;99.90;;;;;;5061047;22;20090;-67
2022/10/27 05:44:48;;;;;;;19.25;3.50;;;11.90;99.90;;;;;;5041598;28;20032;-67
2022/10/27 05:47:13;;;;;;;12.15;3.53;;;11.90;99.90;;;;;;5047381;28;20104;-67
2022/10/27 05:49:39;;;;;;;11.32;3.50;;;11.90;99.90;;;;;;5043097;28;20542;-66
2022/10/27 05:52:04;;;;;;;6.35;3.53;;;11.90;99.90;;;;;;5055923;28;20036;-67
2022/10/27 05:54:30;;;;;;;9.55;3.53;;;11.80;99.90;;;;;;5046520;28;20033;-67
2022/10/27 05:56:55;;;;;;;15.57;3.28;;;11.80;99.90;;;;;;5046717;28;20123;-67
2022/10/27 05:59:21;;;;;;;8.50;3.42;;;11.90;99.90;;;;;;5040018;28;20398;-67
2022/10/27 06:01:46;;;;;;;8.27;3.60;;;11.90;99.90;;;;;;5053078;28;20118;-67
2022/10/27 06:04:12;;;;;;;4.75;2.65;;;11.90;99.90;;;;;;5052301;28;20031;-67
2022/10/27 06:06:37;;;;;;;11.68;4.05;;;11.90;99.90;;;;;;5060966;28;20027;-67
2022/10/27 06:09:03;;;;;;;17.92;3.35;;;11.90;99.90;;;;;;5051142;28;20021;-67
2022/10/27 06:11:29;;;;;;;14.05;3.20;;;12.00;99.90;;;;;;5038034;28;20056;-67
2022/10/27 06:13:54;;;;;;;8.15;3.13;;;12.00;99.90;;;;;;5043210;28;20047;-69
2022/10/27 06:16:21;;;;;;;13.95;3.75;;;12.00;99.90;;;;;;5057036;28;20107;-67
2022/10/27 06:18:47;;;;;;;5.72;3.15;;;12.00;99.90;;;;;;5051286;28;20053;-67
2022/10/27 06:21:13;;;;;;;13.60;3.67;;;12.00;99.90;;;;;;5057896;28;20068;-66
2022/10/27 06:23:40;;;;;;;11.57;3.00;;;12.00;99.90;;;;;;5049450;28;21451;-67
2022/10/27 06:26:06;;;;;;;15.65;4.60;;;12.00;99.90;;;;;;5048715;28;20017;-67
2022/10/27 06:28:32;;;;;;;10.18;3.22;;;12.00;99.90;;;;;;5041059;28;20455;-67
2022/10/27 06:30:57;;;;;;;9.85;3.38;;;12.00;99.90;;;;;;5052676;28;20112;-67
2022/10/27 06:33:23;;;;;;;12.20;3.50;;;12.00;99.90;;;;;;5053164;28;20029;-67
2022/10/27 06:35:48;;;;;;;8.88;3.60;;;12.10;99.90;;;;;;5059929;28;20475;-67
2022/10/27 06:38:15;;;;;;;13.45;3.97;;;12.10;99.90;;;;;;5051414;28;20418;-67
2022/10/27 06:40:42;;;;;;;8.27;2.97;;;12.10;99.90;;;;;;5046629;28;20018;-67
2022/10/27 06:43:09;;;;;;;11.35;3.03;;;12.10;99.90;;;;;;5047641;28;20063;-67
2022/10/27 06:45:35;;;;;;;15.48;3.65;;;12.10;99.90;;;;;;5048556;28;20070;-67
2022/10/27 06:48:01;;;;;;;5.65;3.50;;;12.10;99.90;;;;;;5045691;28;20027;-66
2022/10/27 06:50:27;;;;;;;10.52;2.78;;;12.10;99.90;;;;;;5057463;28;20802;-67
2022/10/27 06:52:52;;;;;;;11.98;3.45;;;12.10;99.90;;;;;;5043934;28;20040;-67
2022/10/27 06:55:19;;;;;;;11.10;3.65;;;12.20;99.90;;;;;;5051547;28;20482;-67
2022/10/27 06:57:44;;;;;;;7.18;2.97;;;12.20;99.90;;;;;;5047878;28;20029;-67
2022/10/27 07:00:10;;;;;;;8.48;3.70;;;12.20;99.90;;;;;;5048090;28;20033;-66
2022/10/27 07:02:36;;;;;;;9.93;3.42;;;12.30;99.90;;;;;;5053332;28;20031;-68
2022/10/27 07:05:03;;;;;;;6.20;2.90;;;12.30;99.90;;;;;;5051227;28;20729;-67
2022/10/27 07:07:28;;;;;;;7.25;3.47;;;12.30;99.90;;;;;;5046337;28;20033;-67
2022/10/27 07:09:54;;;;;;;11.98;3.10;;;12.30;99.90;;;;;;5046080;28;20676;-68
2022/10/27 07:12:19;;;;;;;8.85;3.60;;;12.40;99.90;;;;;;5035872;28;20116;-69
2022/10/27 07:14:45;;;;;;;11.57;3.63;;;12.50;99.90;;;;;;5052870;28;20032;-67
2022/10/27 07:17:10;;;;;;;12.55;3.47;;;12.50;99.90;;;;;;5054388;28;20027;-67
2022/10/27 07:19:36;;;;;;;10.18;2.88;;;12.50;99.90;;;;;;5059002;28;20452;-67
2022/10/27 07:22:01;;;;;;;17.95;3.80;;;12.60;99.90;;;;;;5051771;28;20047;-68
2022/10/27 07:24:28;;;;;;;14.32;3.58;;;12.60;99.90;;;;;;5054045;28;20044;-68
2022/10/27 07:26:53;;;;;;;8.93;2.95;;;12.70;99.90;;;;;;5048313;28;20642;-68
2022/10/27 07:29:19;;;;;;;12.50;3.85;;;12.70;99.90;;;;;;5053238;28;20543;-67
2022/10/27 07:31:46;;;;;;;15.63;3.50;;;12.80;99.90;;;;;;5042964;28;20025;-68
2022/10/27 07:34:12;;;;;;;9.20;2.80;;;12.80;99.90;;;;;;5027183;28;20017;-67
2022/10/27 07:36:37;;;;;;;18.45;3.40;;;12.90;99.90;;;;;;5050365;28;20829;-67
2022/10/27 07:39:03;;;;;;;10.18;2.38;;;13.00;99.90;;;;;;5042069;28;20045;-67
2022/10/27 07:41:29;;;;;;;5.28;2.53;;;13.00;99.90;;;;;;5052310;28;20024;-68
2022/10/27 07:43:55;;;;;;;12.30;4.10;;;13.00;99.90;;;;;;5054535;28;20021;-67
2022/10/27 07:46:20;;;;;;;10.63;2.38;;;13.10;99.90;;;;;;5049323;28;20029;-67
2022/10/27 07:48:46;;;;;;;9.75;2.40;;;13.30;99.90;;;;;;5053295;28;20032;-67
2022/10/27 07:51:11;;;;;;;23.27;5.32;;;13.20;99.90;;;;;;5049073;28;20026;-68
2022/10/27 07:53:37;;;;;;;4.50;2.03;;;13.30;99.90;;;;;;5051325;28;20052;-66
2022/10/27 07:56:03;;;;;;;12.65;2.85;;;13.40;99.90;;;;;;5048035;28;20498;-67
2022/10/27 07:58:28;;;;;;;5.40;2.53;;;13.40;99.90;;;;;;5053957;28;20032;-67
2022/10/27 08:00:54;;;;;;;5.05;2.38;;;13.50;99.90;;;;;;5059913;28;20093;-68
2022/10/27 08:03:22;;;;;;;6.22;2.17;;;13.50;99.90;;;;;;5042785;28;20043;-67
2022/10/27 08:05:48;;;;;;;11.48;2.55;;;13.60;99.90;;;;;;5041175;28;20025;-67
2022/10/27 08:08:15;;;;;;;7.97;2.45;;;13.60;99.90;;;;;;5049637;28;20040;-67
2022/10/27 08:10:42;;;;;;;11.52;2.20;;;13.70;99.90;;;;;;5048293;28;20109;-68
2022/10/27 08:13:08;;;;;;;9.98;2.10;;;13.70;99.90;;;;;;5052255;28;20029;-67
2022/10/27 08:15:35;;;;;;;5.57;2.53;;;13.80;99.90;;;;;;5054734;28;20029;-67
2022/10/27 08:18:02;;;;;;;7.25;2.50;;;13.90;99.90;;;;;;5023964;28;20033;-67
2022/10/27 08:20:31;;;;;;;7.32;2.70;;;13.90;99.90;;;;;;5045483;28;20025;-67
2022/10/27 08:22:58;;;;;;;7.13;2.30;;;14.10;99.90;;;;;;5048234;28;20036;-67
2022/10/27 08:25:25;;;;;;;11.80;1.95;;;14.10;99.90;;;;;;5052068;28;20143;-67
2022/10/27 08:27:50;;;;;;;10.15;2.28;;;14.20;99.90;;;;;;5038853;28;20446;-69
2022/10/27 08:30:16;;;;;;;11.52;1.95;;;14.20;99.90;;;;;;5036958;28;20140;-67
2022/10/27 08:32:42;;;;;;;16.23;4.10;;;14.30;99.90;;;;;;5036011;28;20445;-67
2022/10/27 08:35:08;;;;;;;8.82;2.05;;;14.30;99.90;;;;;;5036997;28;20056;-67
2022/10/27 08:37:33;;;;;;;12.50;1.90;;;14.50;99.90;;;;;;5045959;28;20021;-67
2022/10/27 08:39:59;;;;;;;10.13;1.88;;;14.60;99.90;;;;;;5043735;28;20509;-67
2022/10/27 08:43:02;;;;;;;6.15;2.45;;;14.70;99.90;;;;;;5042748;28;20436;-68
2022/10/27 08:45:33;;;;;;;5.68;2.17;;;14.80;99.90;;;;;;5053915;28;20070;-67
2022/10/27 08:48:00;;;;;;;6.20;1.73;;;14.90;99.90;;;;;;5043306;28;20035;-68
2022/10/27 08:50:30;;;;;;;10.02;2.00;;;15.00;99.90;;;;;;5048976;28;20025;-67
2022/10/27 08:53:01;;;;;;;8.80;1.67;;;15.20;99.90;;;;;;5044374;28;20100;-67
2022/10/27 08:55:37;;;;;;;7.68;1.60;;;15.30;99.90;;;;;;5055065;28;20095;-67
2022/10/27 08:58:30;;;;;;;12.93;1.83;;;15.40;99.90;;;;;;5053091;28;20040;-67
2022/10/27 09:01:23;;;;;;;6.38;1.52;;;15.50;99.90;;;;;;5043702;28;20568;-68
2022/10/27 09:04:07;;;;;;;2.88;1.63;;;15.70;99.90;;;;;;5043392;28;20060;-67
2022/10/27 09:06:38;;;;;;;9.13;1.60;;;15.80;99.90;;;;;;5051973;28;20424;-67
2022/10/27 09:09:25;;;;;;;12.43;1.98;;;15.90;99.90;;;;;;5054603;28;20201;-67
2022/10/27 09:12:18;;;;;;;3.67;1.55;;;15.90;99.90;;;;;;5053104;28;20102;-68
2022/10/27 09:14:50;;;;;;;4.70;1.48;;;16.00;99.90;;;;;;5046207;28;21938;-67
2022/10/27 09:17:23;;;;;;;2.90;1.17;;;16.10;99.90;;;;;;5055479;28;20032;-67
2022/10/27 09:20:00;;;;;;;3.60;1.70;;;16.20;99.90;;;;;;5036283;28;20087;-66
2022/10/27 09:22:29;;;;;;;12.82;1.95;;;16.40;99.90;;;;;;5055298;28;20087;-67
2022/10/27 09:25:01;;;;;;;10.00;2.00;;;16.50;99.90;;;;;;5050060;28;20033;-67
2022/10/27 09:27:27;;;;;;;4.93;1.73;;;16.50;99.90;;;;;;5060309;28;20486;-68
2022/10/27 09:29:57;;;;;;;4.97;1.73;;;16.50;99.90;;;;;;5048540;28;20032;-67
2022/10/27 09:32:25;;;;;;;8.52;1.73;;;16.60;99.90;;;;;;5049358;28;20068;-67
2022/10/27 09:35:02;;;;;;;2.20;1.30;;;16.60;99.90;;;;;;5045984;28;20049;-67
2022/10/27 09:37:31;;;;;;;8.15;2.25;;;16.80;99.90;;;;;;5056958;28;20025;-68
2022/10/27 09:39:57;;;;;;;10.05;1.58;;;16.80;99.90;;;;;;5056571;28;20016;-67
2022/10/27 09:42:23;;;;;;;6.20;1.40;;;16.90;99.90;;;;;;5053454;28;20025;-67
2022/10/27 09:45:00;;;;;;;8.43;1.65;;;17.10;99.90;;;;;;5050537;28;20491;-67
2022/10/27 09:47:36;;;;;;;2.15;1.20;;;17.10;99.90;;;;;;5053377;28;20437;-67
2022/10/27 09:50:05;;;;;;;7.28;2.30;;;17.20;99.90;;;;;;5046931;28;20021;-67
2022/10/27 09:52:39;;;;;;;15.27;1.65;;;17.30;99.90;;;;;;5050679;28;20109;-66
2022/10/27 09:55:05;;;;;;;13.52;1.48;;;17.40;99.90;;;;;;5060428;28;20032;-67
2022/10/27 09:57:34;;;;;;;19.13;3.70;;;17.50;99.90;;;;;;5040621;28;20028;-67
2022/10/27 10:00:14;;;;;;;11.70;2.13;;;17.60;99.90;;;;;;5051377;28;20508;-67
2022/10/27 10:02:53;;;;;;;10.65;1.55;;;17.80;99.90;;;;;;5046899;28;20056;-67
2022/10/27 10:05:23;;;;;;;13.15;2.03;;;17.90;99.90;;;;;;5052725;28;20032;-67
2022/10/27 10:07:49;;;;;;;3.33;1.42;;;18.00;99.90;;;;;;5045089;28;20021;-67
2022/10/27 10:10:18;;;;;;;4.03;1.30;;;18.10;99.90;;;;;;5053545;28;20477;-66
2022/10/27 10:12:43;;;;;;;7.65;2.10;;;18.20;99.90;;;;;;5049575;28;20026;-67
2022/10/27 10:15:09;;;;;;;7.75;1.67;;;18.30;99.90;;;;;;5045988;28;20052;-66
2022/10/27 10:17:35;;;;;;;7.30;2.15;;;18.40;99.90;;;;;;5047958;28;20025;-67
2022/10/27 10:20:01;;;;;;;8.00;1.40;;;18.50;99.90;;;;;;5053249;28;20021;-68
2022/10/27 10:22:31;;;;;;;5.03;1.48;;;18.60;99.90;;;;;;5054725;28;20028;-69
2022/10/27 10:25:02;;;;;;;7.40;1.70;;;18.70;99.90;;;;;;5054086;28;20037;-67
2022/10/27 10:27:31;;;;;;;10.38;1.88;;;18.70;99.90;;;;;;5041100;28;20122;-66
2022/10/27 10:30:03;;;;;;;4.40;1.67;;;18.80;99.90;;;;;;5048636;28;20045;-68
2022/10/27 10:32:34;;;;;;;7.55;1.73;;;18.90;99.90;;;;;;5036218;28;20021;-67
2022/10/27 10:35:00;;;;;;;4.78;1.60;;;19.00;99.90;;;;;;5045212;28;20025;-67
2022/10/27 10:37:38;;;;;;;10.55;1.60;;;19.10;99.90;;;;;;5045130;28;20143;-67
2022/10/27 10:40:12;;;;;;;6.93;1.85;;;19.20;99.90;;;;;;5050286;28;20025;-67
2022/10/27 10:42:48;;;;;;;;;;;19.20;99.90;;;;;;5039694;28;20104;-66
2022/10/27 10:45:22;;;;;;;10.70;1.65;;;19.40;99.90;;;;;;5036738;28;20378;-67
2022/10/27 10:47:54;;;;;;;15.38;2.33;;;19.40;99.90;;;;;;5051643;28;20021;-67
2022/10/27 10:50:20;;;;;;;8.52;1.67;;;19.60;99.90;;;;;;5051449;28;20021;-67
2022/10/27 10:52:51;;;;;;;5.60;1.60;;;19.70;99.90;;;;;;5035718;28;20047;-67
2022/10/27 10:55:37;;;;;;;4.03;1.42;;;19.90;99.90;;;;;;5053164;28;20459;-67
2022/10/27 10:58:03;;;;;;;16.33;1.50;;;20.00;99.90;;;;;;5051600;28;20040;-66
2022/10/27 11:00:28;;;;;;;10.10;2.15;;;20.10;99.90;;;;;;5040280;28;20025;-67
2022/10/27 11:03:03;;;;;;;9.48;1.83;;;20.10;99.90;;;;;;5053675;28;20550;-65
2022/10/27 11:05:29;;;;;;;;;;;20.10;99.90;;;;;;5045334;28;20017;-68
2022/10/27 11:07:55;;;;;;;11.68;1.73;;;20.10;99.90;;;;;;5050508;28;19916;-67
2022/10/27 11:10:42;;;;;;;11.60;2.22;;;20.20;99.90;;;;;;5053034;28;20036;-66
2022/10/27 11:13:18;;;;;;;7.53;1.50;;;20.20;99.90;;;;;;5055041;28;20029;-67
2022/10/27 11:15:56;;;;;;;11.82;1.60;;;20.40;99.90;;;;;;5050773;28;20024;-68
2022/10/27 11:18:55;;;;;;;9.23;1.40;;;20.60;99.90;;;;;;5032508;28;20024;-67
2022/10/27 11:21:33;;;;;;;3.28;1.67;;;20.60;99.90;;;;;;5028113;28;20037;-67
2022/10/27 11:24:07;;;;;;;6.10;2.03;;;20.60;99.90;;;;;;5049109;28;20063;-67
2022/10/27 11:26:36;;;;;;;10.43;2.58;;;20.70;99.90;;;;;;5036171;28;20546;-68
2022/10/27 11:29:07;;;;;;;7.55;2.00;;;20.80;99.90;;;;;;5024094;28;20550;-67
2022/10/27 11:32:07;;;;;;;10.50;2.22;;;20.90;99.90;;;;;;5044580;28;20112;-66
2022/10/27 11:34:39;;;;;;;4.85;1.85;;;21.20;99.90;;;;;;5041447;28;20029;-67
2022/10/27 11:37:13;;;;;;;5.20;1.58;;;21.40;99.90;;;;;;5045061;28;20047;-68
2022/10/27 11:39:55;;;;;;;9.50;2.08;;;21.20;99.90;;;;;;5051196;28;20088;-67
2022/10/27 11:42:42;;;;;;;6.05;2.25;;;21.10;99.90;;;;;;5041005;28;20030;-67
2022/10/27 11:45:33;;;;;;;20.27;2.25;;;21.10;99.90;;;;;;5077277;22;20189;-62
2022/10/27 11:48:11;;;;;;;8.48;1.88;;;21.20;99.90;;;;;;5061198;28;20359;-62
2022/10/27 11:50:51;;;;;;;4.53;1.80;;;21.20;99.90;;;;;;5055803;28;20109;-61
2022/10/27 11:53:17;;;;;;;12.07;2.25;;;21.20;99.90;;;;;;5061511;28;20060;-64
2022/10/27 11:56:17;;;;;;;11.00;1.85;;;21.20;99.90;;;;;;5030498;28;20111;-59
2022/10/27 11:58:48;;;;;;;9.13;2.45;;;21.20;99.90;;;;;;5039709;28;20035;-61
2022/10/27 12:01:36;;;;;;;4.65;1.58;;;21.20;99.90;;;;;;5026060;28;20025;-61
2022/10/27 12:04:30;;;;;;;15.15;2.35;;;21.20;99.90;;;;;;5043087;28;20036;-60
2022/10/27 12:07:15;;;;;;;8.80;2.05;;;21.30;99.90;;;;;;5046746;28;20677;-58
2022/10/27 12:09:55;;;;;;;13.55;2.13;;;21.30;99.90;;;;;;5043608;28;20032;-62
2022/10/27 12:12:41;;;;;;;9.98;2.22;;;21.40;99.90;;;;;;5045592;28;20128;-61
2022/10/27 12:15:26;;;;;;;15.05;2.38;;;21.40;99.90;;;;;;5041495;28;20097;-62
2022/10/27 12:18:30;;;;;;;9.45;2.28;;;21.50;99.90;;;;;;5042947;28;20103;-61
2022/10/27 12:21:11;;;;;;;6.43;1.88;;;21.50;99.90;;;;;;5042028;28;20108;-61
2022/10/27 12:23:43;;;;;;;5.30;1.95;;;21.60;99.90;;;;;;5046870;28;20021;-57
2022/10/27 12:26:28;;;;;;;25.83;2.58;;;21.60;99.90;;;;;;5046425;28;20032;-61
2022/10/27 12:28:55;;;;;;;15.05;2.13;;;21.70;99.90;;;;;;5046484;28;20100;-60
2022/10/27 12:31:25;;;;;;;4.25;1.70;;;21.60;99.90;;;;;;5045290;28;20087;-60
2022/10/27 12:34:01;;;;;;;8.70;2.10;;;21.40;99.90;;;;;;5047092;28;20098;-60
2022/10/27 12:36:34;;;;;;;8.45;2.78;;;21.50;99.90;;;;;;5043704;28;20055;-61
2022/10/27 12:39:35;;;;;;;9.77;1.90;;;21.40;99.90;;;;;;5045130;28;20407;-60
2022/10/27 12:42:45;;;;;;;9.93;3.15;;;21.40;99.90;;;;;;4985845;28;20041;-60
2022/10/27 12:45:30;;;;;;;6.30;2.42;;;21.70;99.90;;;;;;5021430;28;20804;-61
2022/10/27 12:48:27;;;;;;;8.82;2.42;;;21.60;99.90;;;;;;5030112;28;20061;-61
2022/10/27 12:51:02;;;;;;;6.45;1.83;;;21.50;99.90;;;;;;5042568;28;20021;-60
2022/10/27 12:53:52;;;;;;;10.30;2.13;;;21.60;99.90;;;;;;5044911;28;20446;-61
2022/10/27 12:56:50;;;;;;;4.82;2.20;;;21.80;99.90;;;;;;5046895;28;20430;-61